createdAt,value
2018-09-03T00:02:10.068Z,20.45
2018-09-03T00:04:38.968Z,20.41
2018-09-03T00:07:08.071Z,20.36
2018-09-03T00:09:40.617Z,20.29
2018-09-03T00:12:10.099Z,20.39
2018-09-03T00:14:39.451Z,20.36
2018-09-03T00:17:08.942Z,20.46
2018-09-03T00:19:38.085Z,20.47
2018-09-03T00:22:07.171Z,20.51
2018-09-03T00:24:36.235Z,20.42
2018-09-03T00:27:05.102Z,20.45
2018-09-03T00:29:34.175Z,20.45
2018-09-03T00:32:08.231Z,20.36
2018-09-03T00:34:42.426Z,20.43
2018-09-03T00:39:20.712Z,20.47
2018-09-03T00:41:54.767Z,20.46
2018-09-03T00:44:29.191Z,20.46
2018-09-03T00:47:02.552Z,20.55
2018-09-03T00:49:32.101Z,20.51
2018-09-03T00:52:01.460Z,20.44
2018-09-03T00:54:30.401Z,20.54
2018-09-03T00:56:59.611Z,20.56
2018-09-03T00:59:28.488Z,20.52
2018-09-03T01:01:57.615Z,20.45
2018-09-03T01:04:33.522Z,20.47
2018-09-03T01:07:02.537Z,20.51
2018-09-03T01:09:31.346Z,20.45
2018-09-03T01:12:00.314Z,20.45
2018-09-03T01:14:29.214Z,20.43
2018-09-03T01:16:58.044Z,20.44
2018-09-03T01:19:26.983Z,20.36
2018-09-03T01:21:55.885Z,20.33
2018-09-03T01:24:24.824Z,20.31
2018-09-03T01:26:53.630Z,20.30
2018-09-03T01:29:22.546Z,20.26
2018-09-03T01:31:55.340Z,20.34
2018-09-03T01:34:25.477Z,20.42
2018-09-03T01:36:54.748Z,20.32
2018-09-03T01:39:23.644Z,20.37
2018-09-03T01:41:52.532Z,20.35
2018-09-03T01:44:21.309Z,20.27
2018-09-03T01:46:50.055Z,20.26
2018-09-03T01:49:18.972Z,20.24
2018-09-03T01:51:47.820Z,20.34
2018-09-03T01:54:16.700Z,20.22
2018-09-03T01:56:45.668Z,20.23
2018-09-03T01:59:14.430Z,20.27
2018-09-03T02:01:43.875Z,20.22
2018-09-03T02:04:12.761Z,20.23
2018-09-03T02:06:42.239Z,20.17
2018-09-03T02:09:12.580Z,20.19
2018-09-03T02:11:42.264Z,20.11
2018-09-03T02:14:11.166Z,20.00
2018-09-03T02:16:40.316Z,19.87
2018-09-03T02:19:09.507Z,19.70
2018-09-03T02:21:38.455Z,19.64
2018-09-03T02:24:07.675Z,19.64
2018-09-03T02:26:36.454Z,19.62
2018-09-03T02:29:05.286Z,19.61
2018-09-03T02:31:34.520Z,19.56
2018-09-03T02:34:03.539Z,19.56
2018-09-03T02:36:32.628Z,19.54
2018-09-03T02:39:01.755Z,19.54
2018-09-03T02:41:30.816Z,19.53
2018-09-03T02:43:59.644Z,19.55
2018-09-03T02:46:28.576Z,19.55
2018-09-03T02:48:57.407Z,19.56
2018-09-03T02:51:26.114Z,19.54
2018-09-03T02:53:54.977Z,19.57
2018-09-03T02:56:23.684Z,19.59
2018-09-03T02:58:52.779Z,19.58
2018-09-03T03:01:22.585Z,19.40
2018-09-03T03:03:51.480Z,19.51
2018-09-03T03:06:20.702Z,19.45
2018-09-03T03:08:49.567Z,19.51
2018-09-03T03:11:18.524Z,19.43
2018-09-03T03:13:47.831Z,19.49
2018-09-03T03:16:16.729Z,19.39
2018-09-03T03:18:45.670Z,19.41
2018-09-03T03:21:14.721Z,19.49
2018-09-03T03:23:44.019Z,19.43
2018-09-03T03:26:13.403Z,19.42
2018-09-03T03:28:42.408Z,19.49
2018-09-03T03:31:11.500Z,19.42
2018-09-03T03:33:47.134Z,19.38
2018-09-03T03:36:16.073Z,19.39
2018-09-03T03:38:44.941Z,19.39
2018-09-03T03:41:14.027Z,19.38
2018-09-03T03:43:42.836Z,19.36
2018-09-03T03:46:12.230Z,19.31
2018-09-03T03:48:41.338Z,19.28
2018-09-03T03:51:10.193Z,19.33
2018-09-03T03:53:39.300Z,19.34
2018-09-03T03:56:08.510Z,19.35
2018-09-03T03:58:37.284Z,19.32
2018-09-03T04:04:01.907Z,19.25
2018-09-03T04:06:30.776Z,19.22
2018-09-03T04:09:00.134Z,19.19
2018-09-03T04:11:28.991Z,19.16
2018-09-03T04:13:58.289Z,19.15
2018-09-03T04:16:27.030Z,19.16
2018-09-03T04:18:56.063Z,19.12
2018-09-03T04:21:24.954Z,19.14
2018-09-03T04:23:54.248Z,19.08
2018-09-03T04:26:23.560Z,19.12
2018-09-03T04:28:52.730Z,19.12
2018-09-03T04:31:21.443Z,19.11
2018-09-03T04:33:50.226Z,19.15
2018-09-03T04:36:19.371Z,19.17
2018-09-03T04:38:48.202Z,19.07
2018-09-03T04:41:17.304Z,19.12
2018-09-03T04:43:46.240Z,19.09
2018-09-03T04:46:14.972Z,19.18
2018-09-03T04:48:43.684Z,19.22
2018-09-03T04:51:12.721Z,19.22
2018-09-03T04:53:41.735Z,19.11
2018-09-03T04:56:10.839Z,19.16
2018-09-03T04:58:39.943Z,19.13
2018-09-03T05:01:09.057Z,19.09
2018-09-03T05:03:37.888Z,19.12
2018-09-03T05:06:07.288Z,19.13
2018-09-03T05:08:36.039Z,19.14
2018-09-03T05:11:05.026Z,19.05
2018-09-03T05:13:33.929Z,19.01
2018-09-03T05:16:02.796Z,19.10
2018-09-03T05:18:31.688Z,19.08
2018-09-03T05:21:00.589Z,19.09
2018-09-03T05:23:29.853Z,18.98
2018-09-03T05:25:59.395Z,19.01
2018-09-03T05:28:28.489Z,19.01
2018-09-03T05:30:57.457Z,18.99
2018-09-03T05:33:26.464Z,18.98
2018-09-03T05:35:56.060Z,19.11
2018-09-03T05:38:25.246Z,19.01
2018-09-03T05:40:54.170Z,18.99
2018-09-03T05:43:23.498Z,19.08
2018-09-03T05:45:52.156Z,19.11
2018-09-03T05:48:21.143Z,19.09
2018-09-03T05:50:50.142Z,19.05
2018-09-03T05:53:19.042Z,18.97
2018-09-03T05:55:48.097Z,18.98
2018-09-03T05:58:17.222Z,18.98
2018-09-03T06:00:46.321Z,19.01
2018-09-03T06:03:15.100Z,19.02
2018-09-03T06:05:44.021Z,19.04
2018-09-03T06:08:12.957Z,19.07
2018-09-03T06:10:42.178Z,19.21
2018-09-03T06:13:10.968Z,19.24
2018-09-03T06:15:40.118Z,19.24
2018-09-03T06:18:09.309Z,19.26
2018-09-03T06:20:38.255Z,19.24
2018-09-03T06:23:07.316Z,19.18
2018-09-03T06:25:36.455Z,19.24
2018-09-03T06:28:05.550Z,19.22
2018-09-03T06:30:34.508Z,19.41
2018-09-03T06:33:03.708Z,19.48
2018-09-03T06:35:32.733Z,19.48
2018-09-03T06:38:01.600Z,19.53
2018-09-03T06:40:30.712Z,19.59
2018-09-03T06:42:59.721Z,19.65
2018-09-03T06:45:29.114Z,19.72
2018-09-03T06:47:58.179Z,19.72
2018-09-03T06:50:27.491Z,19.74
2018-09-03T06:52:56.596Z,19.67
2018-09-03T06:55:25.806Z,19.73
2018-09-03T06:57:55.390Z,19.74
2018-09-03T07:00:24.292Z,19.79
2018-09-03T07:02:53.187Z,19.81
2018-09-03T07:05:22.154Z,19.87
2018-09-03T07:07:51.116Z,19.95
2018-09-03T07:10:20.125Z,19.99
2018-09-03T07:12:49.369Z,20.04
2018-09-03T07:15:18.467Z,20.09
2018-09-03T07:17:47.402Z,20.01
2018-09-03T07:20:16.318Z,20.08
2018-09-03T07:22:45.404Z,20.20
2018-09-03T07:25:14.193Z,20.19
2018-09-03T07:27:43.527Z,20.25
2018-09-03T07:30:12.578Z,20.35
2018-09-03T07:32:41.500Z,20.38
2018-09-03T07:35:10.580Z,20.38
2018-09-03T07:37:39.651Z,20.52
2018-09-03T07:40:09.209Z,20.52
2018-09-03T07:42:38.697Z,20.61
2018-09-03T07:45:07.588Z,20.69
2018-09-03T07:47:36.459Z,20.85
2018-09-03T07:50:06.610Z,20.87
2018-09-03T07:52:35.396Z,20.79
2018-09-03T07:55:04.817Z,20.88
2018-09-03T07:57:33.897Z,20.93
2018-09-03T08:00:02.798Z,21.08
2018-09-03T08:02:31.748Z,21.28
2018-09-03T08:05:01.805Z,21.43
2018-09-03T08:07:30.849Z,21.66
2018-09-03T08:09:59.794Z,21.78
2018-09-03T08:12:28.883Z,22.04
2018-09-03T08:14:57.985Z,22.00
2018-09-03T08:17:27.489Z,22.14
2018-09-03T08:19:56.614Z,22.26
2018-09-03T08:22:25.521Z,22.37
2018-09-03T08:24:55.185Z,22.55
2018-09-03T08:27:24.280Z,22.49
2018-09-03T08:29:53.131Z,22.74
2018-09-03T08:32:22.476Z,22.76
2018-09-03T08:34:51.567Z,22.99
2018-09-03T08:37:20.449Z,23.11
2018-09-03T08:39:49.249Z,23.14
2018-09-03T08:42:18.055Z,23.48
2018-09-03T08:44:47.018Z,23.79
2018-09-03T08:47:15.937Z,23.60
2018-09-03T08:49:44.917Z,23.17
2018-09-03T08:52:13.801Z,23.25
2018-09-03T08:54:42.686Z,23.39
2018-09-03T08:57:11.964Z,23.59
2018-09-03T08:59:40.828Z,23.51
2018-09-03T09:02:10.184Z,23.74
2018-09-03T09:04:39.278Z,23.81
2018-09-03T09:07:08.364Z,24.03
2018-09-03T09:09:37.552Z,24.10
2018-09-03T09:12:06.543Z,24.09
2018-09-03T09:14:35.426Z,24.18
2018-09-03T09:17:04.913Z,24.22
2018-09-03T09:19:34.203Z,24.14
2018-09-03T09:22:03.120Z,24.51
2018-09-03T09:24:32.070Z,24.57
2018-09-03T09:27:01.169Z,24.70
2018-09-03T09:29:30.177Z,24.57
2018-09-03T09:31:59.125Z,24.83
2018-09-03T09:34:27.893Z,24.98
2018-09-03T09:36:56.860Z,25.19
2018-09-03T09:39:25.989Z,25.05
2018-09-03T09:41:55.094Z,25.18
2018-09-03T09:44:23.905Z,25.47
2018-09-03T09:46:52.932Z,25.38
2018-09-03T09:49:22.095Z,25.41
2018-09-03T09:51:51.276Z,25.53
2018-09-03T09:54:20.088Z,25.48
2018-09-03T09:56:49.467Z,25.89
2018-09-03T09:59:18.558Z,25.81
2018-09-03T10:01:47.440Z,26.12
2018-09-03T10:04:17.185Z,26.07
2018-09-03T10:06:45.978Z,25.77
2018-09-03T10:09:14.915Z,26.02
2018-09-03T10:11:44.024Z,26.22
2018-09-03T10:14:12.924Z,26.11
2018-09-03T10:16:42.209Z,26.14
2018-09-03T10:19:14.188Z,26.49
2018-09-03T10:21:43.073Z,26.06
2018-09-03T10:24:19.163Z,26.21
2018-09-03T10:26:48.225Z,26.26
2018-09-03T10:29:17.532Z,26.38
2018-09-03T10:31:46.672Z,26.35
2018-09-03T10:34:15.519Z,26.40
2018-09-03T10:36:44.413Z,26.82
2018-09-03T10:39:13.505Z,27.13
2018-09-03T10:41:42.247Z,27.08
2018-09-03T10:44:11.076Z,26.94
2018-09-03T10:46:40.216Z,27.30
2018-09-03T10:49:09.350Z,27.51
2018-09-03T10:51:38.778Z,27.74
2018-09-03T10:54:13.738Z,27.59
2018-09-03T10:56:42.602Z,27.45
2018-09-03T10:59:11.427Z,27.74
2018-09-03T11:01:40.410Z,28.08
2018-09-03T11:04:09.462Z,28.22
2018-09-03T11:06:38.556Z,29.18
2018-09-03T11:09:09.732Z,29.42
2018-09-03T11:11:38.597Z,30.14
2018-09-03T11:14:08.152Z,30.33
2018-09-03T11:16:37.401Z,30.29
2018-09-03T11:19:06.713Z,31.19
2018-09-03T11:21:35.996Z,30.73
2018-09-03T11:24:04.705Z,32.27
2018-09-03T11:26:33.793Z,31.70
2018-09-03T11:29:02.893Z,32.25
2018-09-03T11:31:32.177Z,31.57
2018-09-03T11:34:00.984Z,32.62
2018-09-03T11:36:29.871Z,32.25
2018-09-03T11:38:58.731Z,32.19
2018-09-03T11:41:27.839Z,32.04
2018-09-03T11:43:56.747Z,31.98
2018-09-03T11:46:25.620Z,31.64
2018-09-03T11:48:54.544Z,31.16
2018-09-03T11:51:23.826Z,31.94
2018-09-03T11:53:52.716Z,32.89
2018-09-03T11:56:22.020Z,32.48
2018-09-03T11:58:50.903Z,31.16
2018-09-03T12:01:19.800Z,32.91
2018-09-03T12:03:48.872Z,32.95
2018-09-03T12:06:17.986Z,32.38
2018-09-03T12:08:46.875Z,32.53
2018-09-03T12:11:17.070Z,32.17
2018-09-03T12:13:45.896Z,31.40
2018-09-03T12:16:17.006Z,32.02
2018-09-03T12:18:46.129Z,32.89
2018-09-03T12:21:15.652Z,33.40
2018-09-03T12:23:45.031Z,32.60
2018-09-03T12:26:13.926Z,32.85
2018-09-03T12:28:43.025Z,32.16
2018-09-03T12:31:12.392Z,34.47
2018-09-03T12:33:41.213Z,32.48
2018-09-03T12:36:10.420Z,33.82
2018-09-03T12:38:39.289Z,34.22
2018-09-03T12:41:08.612Z,33.51
2018-09-03T12:43:37.999Z,35.10
2018-09-03T12:46:08.336Z,34.70
2018-09-03T12:48:37.640Z,34.77
2018-09-03T12:51:07.363Z,34.99
2018-09-03T12:53:36.121Z,35.36
2018-09-03T12:56:05.478Z,35.34
2018-09-03T12:58:34.653Z,35.73
2018-09-03T13:01:03.824Z,36.07
2018-09-03T13:03:32.892Z,35.44
2018-09-03T13:06:01.798Z,35.87
2018-09-03T13:08:30.696Z,36.02
2018-09-03T13:10:59.794Z,35.84
2018-09-03T13:13:28.683Z,35.79
2018-09-03T13:15:57.991Z,35.89
2018-09-03T13:18:26.876Z,36.75
2018-09-03T13:20:55.828Z,36.29
2018-09-03T13:23:25.341Z,36.13
2018-09-03T13:25:54.222Z,32.84
2018-09-03T13:28:23.157Z,35.52
2018-09-03T13:30:52.262Z,36.03
2018-09-03T13:33:21.145Z,36.47
2018-09-03T13:35:50.028Z,33.46
2018-09-03T13:38:18.919Z,34.60
2018-09-03T13:40:48.017Z,34.15
2018-09-03T13:43:16.999Z,31.13
2018-09-03T13:45:46.107Z,35.39
2018-09-03T13:48:15.050Z,36.91
2018-09-03T13:50:43.883Z,36.95
2018-09-03T13:53:12.983Z,35.75
2018-09-03T13:55:41.864Z,34.69
2018-09-03T13:58:10.958Z,32.86
2018-09-03T14:00:40.055Z,34.95
2018-09-03T14:03:09.358Z,35.90
2018-09-03T14:05:39.099Z,34.54
2018-09-03T14:08:08.546Z,32.03
2018-09-03T14:10:37.437Z,34.34
2018-09-03T14:13:06.355Z,35.66
2018-09-03T14:15:35.271Z,34.96
2018-09-03T14:18:04.632Z,34.40
2018-09-03T14:20:34.226Z,31.03
2018-09-03T14:23:03.356Z,30.87
2018-09-03T14:25:32.237Z,30.55
2018-09-03T14:28:01.528Z,29.97
2018-09-03T14:30:30.848Z,30.03
2018-09-03T14:33:00.154Z,29.90
2018-09-03T14:35:30.109Z,29.82
2018-09-03T14:37:59.161Z,29.56
2018-09-03T14:40:28.873Z,29.48
2018-09-03T14:42:58.227Z,29.28
2018-09-03T14:45:27.438Z,28.67
2018-09-03T14:47:56.973Z,28.82
2018-09-03T14:50:26.146Z,28.95
2018-09-03T14:52:55.315Z,28.95
2018-09-03T14:55:24.569Z,29.20
2018-09-03T14:57:53.660Z,29.43
2018-09-03T15:00:22.402Z,29.14
2018-09-03T15:02:51.652Z,28.99
2018-09-03T15:05:20.720Z,28.92
2018-09-03T15:07:49.630Z,28.59
2018-09-03T15:10:18.688Z,28.36
2018-09-03T15:12:47.829Z,27.89
2018-09-03T15:15:17.112Z,27.91
2018-09-03T15:17:46.016Z,28.06
2018-09-03T15:20:15.095Z,28.20
2018-09-03T15:22:44.767Z,27.98
2018-09-03T15:25:14.580Z,27.87
2018-09-03T15:27:45.249Z,28.02
2018-09-03T15:30:14.137Z,28.16
2018-09-03T15:32:44.953Z,28.20
2018-09-03T15:35:14.548Z,28.10
2018-09-03T15:37:43.485Z,27.99
2018-09-03T15:40:12.631Z,27.86
2018-09-03T15:42:42.279Z,28.03
2018-09-03T15:45:14.057Z,27.92
2018-09-03T15:47:44.569Z,28.02
2018-09-03T15:50:14.086Z,28.07
2018-09-03T15:52:44.002Z,27.81
2018-09-03T15:55:13.097Z,27.79
2018-09-03T15:57:42.193Z,27.64
2018-09-03T16:00:11.497Z,27.57
2018-09-03T16:02:40.321Z,27.63
2018-09-03T16:05:09.543Z,27.61
2018-09-03T16:07:38.556Z,27.51
2018-09-03T16:10:07.469Z,27.39
2018-09-03T16:12:36.945Z,27.42
2018-09-03T16:15:06.505Z,27.44
2018-09-03T16:17:35.561Z,27.20
2018-09-03T16:20:04.720Z,27.09
2018-09-03T16:22:34.158Z,27.14
2018-09-03T16:25:03.059Z,27.11
2018-09-03T16:27:32.734Z,27.03
2018-09-03T16:30:01.669Z,27.00
2018-09-03T16:32:31.141Z,26.89
2018-09-03T16:35:00.278Z,26.93
2018-09-03T16:37:29.754Z,26.87
2018-09-03T16:39:59.969Z,26.80
2018-09-03T16:42:28.974Z,26.74
2018-09-03T16:44:57.874Z,26.63
2018-09-03T16:47:27.259Z,26.51
2018-09-03T16:49:56.289Z,26.41
2018-09-03T16:52:25.326Z,26.33
2018-09-03T16:54:57.015Z,26.32
2018-09-03T16:57:33.796Z,26.20
2018-09-03T17:00:03.535Z,26.29
2018-09-03T17:02:33.015Z,26.14
2018-09-03T17:05:02.301Z,26.13
2018-09-03T17:07:33.111Z,26.02
2018-09-03T17:10:02.752Z,26.05
2018-09-03T17:12:33.077Z,25.88
2018-09-03T17:15:02.226Z,25.78
2018-09-03T17:17:31.241Z,25.76
2018-09-03T17:20:00.560Z,25.59
2018-09-03T17:22:29.784Z,25.61
2018-09-03T17:24:58.967Z,25.52
2018-09-03T17:27:28.334Z,25.49
2018-09-03T17:29:57.436Z,25.27
2018-09-03T17:32:26.252Z,25.09
2018-09-03T17:34:55.145Z,24.98
2018-09-03T17:37:24.080Z,24.91
2018-09-03T17:39:53.744Z,24.76
2018-09-03T17:42:22.633Z,24.68
2018-09-03T17:44:54.042Z,24.59
2018-09-03T17:47:25.334Z,24.44
2018-09-03T17:49:55.251Z,24.33
2018-09-03T17:52:24.248Z,24.26
2018-09-03T17:54:53.228Z,24.20
2018-09-03T17:57:22.325Z,24.06
2018-09-03T17:59:52.025Z,23.91
2018-09-03T18:02:22.341Z,23.84
2018-09-03T18:04:52.995Z,23.82
2018-09-03T18:07:21.980Z,24.45
2018-09-03T18:09:51.066Z,24.26
2018-09-03T18:12:20.072Z,24.44
2018-09-03T18:14:49.419Z,24.58
2018-09-03T18:17:19.199Z,24.47
2018-09-03T18:19:48.752Z,24.33
2018-09-03T18:22:17.787Z,24.16
2018-09-03T18:24:49.355Z,24.01
2018-09-03T18:27:19.121Z,24.21
2018-09-03T18:29:49.017Z,24.20
2018-09-03T18:32:18.156Z,24.12
2018-09-03T18:34:47.325Z,23.86
2018-09-03T18:37:16.559Z,23.84
2018-09-03T18:39:45.630Z,23.77
2018-09-03T18:42:14.742Z,23.84
2018-09-03T18:44:44.366Z,23.76
2018-09-03T18:47:13.555Z,23.69
2018-09-03T18:49:43.094Z,23.66
2018-09-03T18:52:12.807Z,23.68
2018-09-03T18:54:42.626Z,23.73
2018-09-03T18:57:11.948Z,23.59
2018-09-03T18:59:41.912Z,23.53
2018-09-03T19:02:11.221Z,23.47
2018-09-03T19:04:40.731Z,23.28
2018-09-03T19:07:10.413Z,23.43
2018-09-03T19:09:39.811Z,23.23
2018-09-03T19:12:09.396Z,23.28
2018-09-03T19:14:39.644Z,23.14
2018-09-03T19:17:09.269Z,23.15
2018-09-03T19:19:39.034Z,23.01
2018-09-03T19:22:08.511Z,22.95
2018-09-03T19:24:38.426Z,22.96
2018-09-03T19:27:08.535Z,23.14
2018-09-03T19:29:37.611Z,22.82
2018-09-03T19:32:06.990Z,22.88
2018-09-03T19:34:36.594Z,22.87
2018-09-03T19:37:05.985Z,22.69
2018-09-03T19:39:35.255Z,22.66
2018-09-03T19:42:04.686Z,22.82
2018-09-03T19:44:33.810Z,22.77
2018-09-03T19:47:02.892Z,22.66
2018-09-03T19:49:32.762Z,22.56
2018-09-03T19:52:02.846Z,22.51
2018-09-03T19:54:34.666Z,22.52
2018-09-03T19:57:05.089Z,22.48
2018-09-03T19:59:34.109Z,22.48
2018-09-03T20:02:03.895Z,22.32
2018-09-03T20:04:33.515Z,22.29
2018-09-03T20:07:02.805Z,22.18
2018-09-03T20:09:32.067Z,22.22
2018-09-03T20:12:01.094Z,22.09
2018-09-03T20:14:31.211Z,21.97
2018-09-03T20:17:00.982Z,21.91
2018-09-03T20:19:31.044Z,21.83
2018-09-03T20:22:00.725Z,21.81
2018-09-03T20:24:30.089Z,21.74
2018-09-03T20:26:59.184Z,21.67
2018-09-03T20:29:28.329Z,21.61
2018-09-03T20:31:57.565Z,21.58
2018-09-03T20:34:26.674Z,21.54
2018-09-03T20:36:56.181Z,21.50
2018-09-03T20:39:25.015Z,21.40
2018-09-03T20:41:54.147Z,21.32
2018-09-03T20:44:24.081Z,21.24
2018-09-03T20:46:52.971Z,21.25
2018-09-03T20:49:22.053Z,21.19
2018-09-03T20:51:52.053Z,21.26
2018-09-03T20:54:21.280Z,21.26
2018-09-03T20:56:50.416Z,21.08
2018-09-03T20:59:20.209Z,20.96
2018-09-03T21:01:49.068Z,20.95
2018-09-03T21:04:18.235Z,20.91
2018-09-03T21:06:47.602Z,20.78
2018-09-03T21:09:16.432Z,20.71
2018-09-03T21:11:45.255Z,20.63
2018-09-03T21:14:14.540Z,20.56
2018-09-03T21:16:43.858Z,20.55
2018-09-03T21:19:13.127Z,20.47
2018-09-03T21:21:42.242Z,20.41
2018-09-03T21:24:11.453Z,20.29
2018-09-03T21:26:40.922Z,20.18
2018-09-03T21:29:09.849Z,20.19
2018-09-03T21:31:38.726Z,20.17
2018-09-03T21:34:07.773Z,20.35
2018-09-03T21:36:37.037Z,20.18
2018-09-03T21:39:06.770Z,20.14
2018-09-03T21:41:35.729Z,20.00
2018-09-03T21:44:05.031Z,20.02
2018-09-03T21:46:34.307Z,19.95
2018-09-03T21:49:03.218Z,19.94
2018-09-03T21:51:32.323Z,19.92
2018-09-03T21:54:01.216Z,19.82
2018-09-03T21:56:30.730Z,19.81
2018-09-03T21:59:00.553Z,19.79
2018-09-03T22:01:29.522Z,19.81
2018-09-03T22:03:58.410Z,19.74
2018-09-03T22:06:27.620Z,19.71
2018-09-03T22:08:56.373Z,19.71
2018-09-03T22:11:25.553Z,19.67
2018-09-03T22:13:54.604Z,19.59
2018-09-03T22:16:23.938Z,19.63
2018-09-03T22:18:52.768Z,19.58
2018-09-03T22:21:21.677Z,19.54
2018-09-03T22:23:50.971Z,19.44
2018-09-03T22:26:20.316Z,19.50
2018-09-03T22:28:49.359Z,19.39
2018-09-03T22:31:18.456Z,19.40
2018-09-03T22:33:47.399Z,19.26
2018-09-03T22:36:16.349Z,19.25
2018-09-03T22:38:45.637Z,19.16
2018-09-03T22:41:14.733Z,19.21
2018-09-03T22:43:43.795Z,19.14
2018-09-03T22:46:13.100Z,19.09
2018-09-03T22:48:41.790Z,19.06
2018-09-03T22:51:10.713Z,19.02
2018-09-03T22:53:39.696Z,18.97
2018-09-03T22:56:08.663Z,18.95
2018-09-03T22:58:37.710Z,18.82
2018-09-03T23:01:06.415Z,18.88
2018-09-03T23:03:35.184Z,18.85
2018-09-03T23:06:04.163Z,18.88
2018-09-03T23:08:32.952Z,18.86
2018-09-03T23:11:01.737Z,18.88
2018-09-03T23:13:31.191Z,18.79
2018-09-03T23:16:00.490Z,18.70
2018-09-03T23:18:29.605Z,18.66
2018-09-03T23:20:58.730Z,18.56
2018-09-03T23:23:27.434Z,18.56
2018-09-03T23:25:56.515Z,18.63
2018-09-03T23:28:26.014Z,18.49
2018-09-03T23:30:55.724Z,18.55
2018-09-03T23:33:25.153Z,18.48
2018-09-03T23:35:54.065Z,18.43
2018-09-03T23:38:23.012Z,18.39
2018-09-03T23:40:52.107Z,18.42
2018-09-03T23:43:21.207Z,18.34
2018-09-03T23:45:50.298Z,18.32
2018-09-03T23:48:19.502Z,18.26
2018-09-03T23:50:48.377Z,18.24
2018-09-03T23:53:17.101Z,18.25
2018-09-03T23:55:46.569Z,18.17
2018-09-03T23:58:15.383Z,18.22
